Ana Sayfa
METAR-TAF:

METAR-TAF

Havaalanları :

Bole Uluslararası Havalimanı

Addis Ababa, Etiyopya

Enlem: 08-59N, Boylam: 038-48E, yükseklik: 2355 m

Güncel hava durumu gözlemi

Rapor saat 11:00 UTC de 10 dakika önce yapıldı.
Rüzgar güneydan 7 kt
Sıcaklık 21°C
Nem 53%
Basınç 1027 hPa
Görüş mesafesi 10 km veya daha fazla
2500 ft yükseklikte parçalı çok bulutlu
2700 ft yükseklikte parçalı bulutlu

METAR: HAAB 201100Z 19007KT 9999 BKN025 SCT027 21/11 Q1027

Saat: 14:10 (11:10 UTC)

Tahmin

Rapor saat 21:30 UTC de 13 saat ve 40 dakika önce yapıldı.
Ayın 20'si saat 00 UTC'den ayın 21'si saat 06 UTC'ye kadar geçerli Tahmin
Rüzgar değişken yönden 3 kt
Görüş mesafesi: 6000 m
2500 ft yükseklikte çok bulutlu
9000 ft yükseklikte çok bulutlu
yağmur
Dönüşüyor
ayın 20'si saat 07 UTC'den ayın 20'si saat 10 UTC'ye kadar
Rüzgar güney/güneydoğudan 8 kt

TAF: HAAB 192130Z 2000/2106 VRB03KT 6000 RA OVC025 OVC090 BECMG 2007/2010 16008KT 999

4.000'den fazla havaalanı için hava durumu gözlemleri ve tahminleri (METAR ve TAF raporları).

Kullanılabilir istasyonlar harita üzerinde sarı ve kırmızı noktalarla gösterilir.

İstasyonun adını görmek için fareyi noktanın üzerinde gezdirin.

Sonrasında hava gözlem ve tahminlerini görmek için tıklayın.

Haritayı değiştirmek için: yaklaştırmak için siyah artı işaretli yeşil düğmeye ve uzaklaştırmak için de eksi işaretli düğmeye hızla tıklayın; bitişik haritalar için yeşil okları kullanın.


METAR-TAF: